sensor_id;sensor_type;location;lat;lon;timestamp;temperature;humidity
13896;DHT22;7018;50.838;4.226;2022-09-27T00:01:35;9.80;99.90
13896;DHT22;7018;50.838;4.226;2022-09-27T00:04:02;9.80;99.90
13896;DHT22;7018;50.838;4.226;2022-09-27T00:06:30;9.80;99.90
13896;DHT22;7018;50.838;4.226;2022-09-27T00:08:58;9.80;99.90
13896;DHT22;7018;50.838;4.226;2022-09-27T00:11:29;9.70;99.90
13896;DHT22;7018;50.838;4.226;2022-09-27T00:13:59;9.80;99.90
13896;DHT22;7018;50.838;4.226;2022-09-27T00:16:29;9.70;99.90
13896;DHT22;7018;50.838;4.226;2022-09-27T00:19:03;9.70;99.90
13896;DHT22;7018;50.838;4.226;2022-09-27T00:21:32;9.70;99.90
13896;DHT22;7018;50.838;4.226;2022-09-27T00:24:00;9.70;99.90
13896;DHT22;7018;50.838;4.226;2022-09-27T00:26:27;9.70;99.90
13896;DHT22;7018;50.838;4.226;2022-09-27T00:28:55;9.70;99.90
13896;DHT22;7018;50.838;4.226;2022-09-27T00:31:25;9.70;99.90
13896;DHT22;7018;50.838;4.226;2022-09-27T00:33:56;9.70;99.90
13896;DHT22;7018;50.838;4.226;2022-09-27T00:36:25;9.70;99.90
13896;DHT22;7018;50.838;4.226;2022-09-27T00:38:54;9.80;99.90
13896;DHT22;7018;50.838;4.226;2022-09-27T00:41:27;9.80;99.90
13896;DHT22;7018;50.838;4.226;2022-09-27T00:44:04;9.70;99.90
13896;DHT22;7018;50.838;4.226;2022-09-27T00:49:43;9.70;99.90
13896;DHT22;7018;50.838;4.226;2022-09-27T00:52:20;9.70;99.90
13896;DHT22;7018;50.838;4.226;2022-09-27T00:54:55;9.70;99.90
13896;DHT22;7018;50.838;4.226;2022-09-27T00:57:25;9.70;99.90
13896;DHT22;7018;50.838;4.226;2022-09-27T01:00:00;9.70;99.90
13896;DHT22;7018;50.838;4.226;2022-09-27T01:02:29;9.60;99.90
13896;DHT22;7018;50.838;4.226;2022-09-27T01:04:57;9.60;99.90
13896;DHT22;7018;50.838;4.226;2022-09-27T01:07:24;9.60;99.90
13896;DHT22;7018;50.838;4.226;2022-09-27T01:09:51;9.50;99.90
13896;DHT22;7018;50.838;4.226;2022-09-27T01:14:54;9.50;99.90
13896;DHT22;7018;50.838;4.226;2022-09-27T01:17:49;9.50;99.90
13896;DHT22;7018;50.838;4.226;2022-09-27T01:34:51;9.50;99.90
13896;DHT22;7018;50.838;4.226;2022-09-27T01:42:49;9.40;99.90
13896;DHT22;7018;50.838;4.226;2022-09-27T01:45:19;9.40;99.90
13896;DHT22;7018;50.838;4.226;2022-09-27T01:47:57;9.40;99.90
13896;DHT22;7018;50.838;4.226;2022-09-27T01:54:08;9.40;99.90
13896;DHT22;7018;50.838;4.226;2022-09-27T01:56:46;9.40;99.90
13896;DHT22;7018;50.838;4.226;2022-09-27T01:59:34;9.40;99.90
13896;DHT22;7018;50.838;4.226;2022-09-27T02:02:08;9.40;99.90
13896;DHT22;7018;50.838;4.226;2022-09-27T02:04:39;9.40;99.90
13896;DHT22;7018;50.838;4.226;2022-09-27T02:07:12;9.40;99.90
13896;DHT22;7018;50.838;4.226;2022-09-27T02:09:47;9.40;99.90
13896;DHT22;7018;50.838;4.226;2022-09-27T02:12:24;9.40;99.90
13896;DHT22;7018;50.838;4.226;2022-09-27T02:14:55;9.40;99.90
13896;DHT22;7018;50.838;4.226;2022-09-27T02:17:36;9.40;99.90
13896;DHT22;7018;50.838;4.226;2022-09-27T02:23:08;9.40;99.90
13896;DHT22;7018;50.838;4.226;2022-09-27T02:26:04;9.40;99.90
13896;DHT22;7018;50.838;4.226;2022-09-27T02:28:59;9.40;99.90
13896;DHT22;7018;50.838;4.226;2022-09-27T02:31:31;9.40;99.90
13896;DHT22;7018;50.838;4.226;2022-09-27T02:34:13;9.40;99.90
13896;DHT22;7018;50.838;4.226;2022-09-27T02:36:42;9.40;99.90
13896;DHT22;7018;50.838;4.226;2022-09-27T02:39:10;9.40;99.90
13896;DHT22;7018;50.838;4.226;2022-09-27T02:41:37;9.30;99.90
13896;DHT22;7018;50.838;4.226;2022-09-27T02:44:07;9.30;99.90
13896;DHT22;7018;50.838;4.226;2022-09-27T02:47:01;9.20;99.90
13896;DHT22;7018;50.838;4.226;2022-09-27T02:49:48;9.20;99.90
13896;DHT22;7018;50.838;4.226;2022-09-27T02:52:36;9.20;99.90
13896;DHT22;7018;50.838;4.226;2022-09-27T02:57:56;9.30;99.90
13896;DHT22;7018;50.838;4.226;2022-09-27T03:00:44;9.30;99.90
13896;DHT22;7018;50.838;4.226;2022-09-27T03:03:25;9.40;99.90
13896;DHT22;7018;50.838;4.226;2022-09-27T03:06:02;9.40;99.90
13896;DHT22;7018;50.838;4.226;2022-09-27T03:08:30;9.40;99.90
13896;DHT22;7018;50.838;4.226;2022-09-27T03:10:58;9.30;99.90
13896;DHT22;7018;50.838;4.226;2022-09-27T03:13:25;9.30;99.90
13896;DHT22;7018;50.838;4.226;2022-09-27T03:15:53;9.30;99.90
13896;DHT22;7018;50.838;4.226;2022-09-27T03:18:22;9.30;99.90
13896;DHT22;7018;50.838;4.226;2022-09-27T03:20:52;9.30;99.90
13896;DHT22;7018;50.838;4.226;2022-09-27T03:23:20;9.40;99.90
13896;DHT22;7018;50.838;4.226;2022-09-27T03:25:47;9.30;99.90
13896;DHT22;7018;50.838;4.226;2022-09-27T03:28:18;9.40;99.90
13896;DHT22;7018;50.838;4.226;2022-09-27T03:30:45;9.40;99.90
13896;DHT22;7018;50.838;4.226;2022-09-27T03:33:13;9.40;99.90
13896;DHT22;7018;50.838;4.226;2022-09-27T03:35:41;9.40;99.90
13896;DHT22;7018;50.838;4.226;2022-09-27T03:38:10;9.50;99.90
13896;DHT22;7018;50.838;4.226;2022-09-27T03:40:37;9.50;99.90
13896;DHT22;7018;50.838;4.226;2022-09-27T03:43:04;9.50;99.90
13896;DHT22;7018;50.838;4.226;2022-09-27T03:45:31;9.50;99.90
13896;DHT22;7018;50.838;4.226;2022-09-27T03:47:59;9.50;99.90
13896;DHT22;7018;50.838;4.226;2022-09-27T03:50:26;9.40;99.90
13896;DHT22;7018;50.838;4.226;2022-09-27T03:52:53;9.30;99.90
13896;DHT22;7018;50.838;4.226;2022-09-27T03:55:21;9.30;99.90
13896;DHT22;7018;50.838;4.226;2022-09-27T03:57:49;9.30;99.90
13896;DHT22;7018;50.838;4.226;2022-09-27T04:00:16;9.30;99.90
13896;DHT22;7018;50.838;4.226;2022-09-27T04:02:44;9.30;99.90
13896;DHT22;7018;50.838;4.226;2022-09-27T04:05:11;9.30;99.90
13896;DHT22;7018;50.838;4.226;2022-09-27T04:07:38;9.30;99.90
13896;DHT22;7018;50.838;4.226;2022-09-27T04:10:06;9.30;99.90
13896;DHT22;7018;50.838;4.226;2022-09-27T04:12:33;9.30;99.90
13896;DHT22;7018;50.838;4.226;2022-09-27T04:15:01;9.30;99.90
13896;DHT22;7018;50.838;4.226;2022-09-27T04:17:28;9.30;99.90
13896;DHT22;7018;50.838;4.226;2022-09-27T04:19:56;9.20;99.90
13896;DHT22;7018;50.838;4.226;2022-09-27T04:22:23;9.20;99.90
13896;DHT22;7018;50.838;4.226;2022-09-27T04:24:50;9.30;99.90
13896;DHT22;7018;50.838;4.226;2022-09-27T04:27:18;9.30;99.90
13896;DHT22;7018;50.838;4.226;2022-09-27T04:29:45;9.20;99.90
13896;DHT22;7018;50.838;4.226;2022-09-27T04:32:13;9.20;99.90
13896;DHT22;7018;50.838;4.226;2022-09-27T04:34:40;9.20;99.90
13896;DHT22;7018;50.838;4.226;2022-09-27T04:37:26;9.20;99.90
13896;DHT22;7018;50.838;4.226;2022-09-27T04:39:54;9.10;99.90
13896;DHT22;7018;50.838;4.226;2022-09-27T04:42:21;9.10;99.90
13896;DHT22;7018;50.838;4.226;2022-09-27T04:44:48;9.10;99.90
13896;DHT22;7018;50.838;4.226;2022-09-27T04:47:15;9.10;99.90
13896;DHT22;7018;50.838;4.226;2022-09-27T04:49:44;9.10;99.90
13896;DHT22;7018;50.838;4.226;2022-09-27T04:52:11;9.10;99.90
13896;DHT22;7018;50.838;4.226;2022-09-27T04:54:38;9.10;99.90
13896;DHT22;7018;50.838;4.226;2022-09-27T04:57:06;9.00;99.90
13896;DHT22;7018;50.838;4.226;2022-09-27T04:59:34;9.00;99.90
13896;DHT22;7018;50.838;4.226;2022-09-27T05:02:01;9.00;99.90
13896;DHT22;7018;50.838;4.226;2022-09-27T05:04:28;9.00;99.90
13896;DHT22;7018;50.838;4.226;2022-09-27T05:06:56;9.00;99.90
13896;DHT22;7018;50.838;4.226;2022-09-27T05:09:23;9.00;99.90
13896;DHT22;7018;50.838;4.226;2022-09-27T05:11:50;9.00;99.90
13896;DHT22;7018;50.838;4.226;2022-09-27T05:14:17;9.10;99.90
13896;DHT22;7018;50.838;4.226;2022-09-27T05:16:47;9.10;99.90
13896;DHT22;7018;50.838;4.226;2022-09-27T05:19:14;9.00;99.90
13896;DHT22;7018;50.838;4.226;2022-09-27T05:21:44;9.00;99.90
13896;DHT22;7018;50.838;4.226;2022-09-27T05:24:11;9.10;99.90
13896;DHT22;7018;50.838;4.226;2022-09-27T05:26:38;9.00;99.90
13896;DHT22;7018;50.838;4.226;2022-09-27T05:29:06;8.90;99.90
13896;DHT22;7018;50.838;4.226;2022-09-27T05:31:33;8.90;99.90
13896;DHT22;7018;50.838;4.226;2022-09-27T05:34:00;9.00;99.90
13896;DHT22;7018;50.838;4.226;2022-09-27T05:36:27;9.00;99.90
13896;DHT22;7018;50.838;4.226;2022-09-27T05:38:55;9.00;99.90
13896;DHT22;7018;50.838;4.226;2022-09-27T05:41:23;9.00;99.90
13896;DHT22;7018;50.838;4.226;2022-09-27T05:43:50;9.00;99.90
13896;DHT22;7018;50.838;4.226;2022-09-27T05:46:18;9.00;99.90
13896;DHT22;7018;50.838;4.226;2022-09-27T05:48:45;9.00;99.90
13896;DHT22;7018;50.838;4.226;2022-09-27T05:51:13;8.90;99.90
13896;DHT22;7018;50.838;4.226;2022-09-27T05:53:40;9.00;99.90
13896;DHT22;7018;50.838;4.226;2022-09-27T05:56:07;9.00;99.90
13896;DHT22;7018;50.838;4.226;2022-09-27T05:58:34;9.00;99.90
13896;DHT22;7018;50.838;4.226;2022-09-27T06:01:05;9.00;99.90
13896;DHT22;7018;50.838;4.226;2022-09-27T06:03:34;9.10;99.90
13896;DHT22;7018;50.838;4.226;2022-09-27T06:06:03;9.00;99.90
13896;DHT22;7018;50.838;4.226;2022-09-27T06:08:33;9.10;99.90
13896;DHT22;7018;50.838;4.226;2022-09-27T06:11:04;9.10;99.90
13896;DHT22;7018;50.838;4.226;2022-09-27T06:13:32;9.20;99.90
13896;DHT22;7018;50.838;4.226;2022-09-27T06:15:59;9.20;99.90
13896;DHT22;7018;50.838;4.226;2022-09-27T06:18:27;9.10;99.90
13896;DHT22;7018;50.838;4.226;2022-09-27T06:20:54;9.00;99.90
13896;DHT22;7018;50.838;4.226;2022-09-27T06:23:22;9.00;99.90
13896;DHT22;7018;50.838;4.226;2022-09-27T06:25:51;9.10;99.90
13896;DHT22;7018;50.838;4.226;2022-09-27T06:28:18;9.00;99.90
13896;DHT22;7018;50.838;4.226;2022-09-27T06:30:47;9.00;99.90
13896;DHT22;7018;50.838;4.226;2022-09-27T06:33:17;9.00;99.90
13896;DHT22;7018;50.838;4.226;2022-09-27T06:35:46;8.90;99.90
13896;DHT22;7018;50.838;4.226;2022-09-27T06:38:16;8.90;99.90
13896;DHT22;7018;50.838;4.226;2022-09-27T06:40:44;8.90;99.90
13896;DHT22;7018;50.838;4.226;2022-09-27T06:43:14;8.90;99.90
13896;DHT22;7018;50.838;4.226;2022-09-27T06:45:42;9.10;99.90
13896;DHT22;7018;50.838;4.226;2022-09-27T06:48:10;9.10;99.90
13896;DHT22;7018;50.838;4.226;2022-09-27T06:50:41;9.10;99.90
13896;DHT22;7018;50.838;4.226;2022-09-27T06:53:11;9.20;99.90
13896;DHT22;7018;50.838;4.226;2022-09-27T06:55:39;9.20;99.90
13896;DHT22;7018;50.838;4.226;2022-09-27T06:58:09;9.20;99.90
13896;DHT22;7018;50.838;4.226;2022-09-27T07:00:55;9.20;99.90
13896;DHT22;7018;50.838;4.226;2022-09-27T07:03:24;9.20;99.90
13896;DHT22;7018;50.838;4.226;2022-09-27T07:06:02;9.30;99.90
13896;DHT22;7018;50.838;4.226;2022-09-27T07:08:29;9.40;99.90
13896;DHT22;7018;50.838;4.226;2022-09-27T07:11:06;9.40;99.90
13896;DHT22;7018;50.838;4.226;2022-09-27T07:13:34;9.40;99.90
13896;DHT22;7018;50.838;4.226;2022-09-27T07:16:07;9.50;99.90
13896;DHT22;7018;50.838;4.226;2022-09-27T07:18:34;9.50;99.90
13896;DHT22;7018;50.838;4.226;2022-09-27T07:21:01;9.50;99.90
13896;DHT22;7018;50.838;4.226;2022-09-27T07:23:28;9.60;99.90
13896;DHT22;7018;50.838;4.226;2022-09-27T07:25:55;9.60;99.90
13896;DHT22;7018;50.838;4.226;2022-09-27T07:28:29;9.70;99.90
13896;DHT22;7018;50.838;4.226;2022-09-27T07:30:57;9.70;99.90
13896;DHT22;7018;50.838;4.226;2022-09-27T07:33:24;9.60;99.90
13896;DHT22;7018;50.838;4.226;2022-09-27T07:35:52;9.60;99.90
13896;DHT22;7018;50.838;4.226;2022-09-27T07:38:19;9.60;99.90
13896;DHT22;7018;50.838;4.226;2022-09-27T07:40:46;9.70;99.90
13896;DHT22;7018;50.838;4.226;2022-09-27T07:43:13;9.60;99.90
13896;DHT22;7018;50.838;4.226;2022-09-27T07:45:41;9.60;99.90
13896;DHT22;7018;50.838;4.226;2022-09-27T07:48:12;9.70;99.90
13896;DHT22;7018;50.838;4.226;2022-09-27T07:50:39;9.70;99.90
13896;DHT22;7018;50.838;4.226;2022-09-27T07:53:07;9.80;99.90
13896;DHT22;7018;50.838;4.226;2022-09-27T07:55:38;9.70;99.90
13896;DHT22;7018;50.838;4.226;2022-09-27T07:58:08;9.70;99.90
13896;DHT22;7018;50.838;4.226;2022-09-27T08:00:37;9.80;99.90
13896;DHT22;7018;50.838;4.226;2022-09-27T08:03:10;9.80;99.90
13896;DHT22;7018;50.838;4.226;2022-09-27T08:05:37;9.90;99.90
13896;DHT22;7018;50.838;4.226;2022-09-27T08:08:05;9.90;99.90
13896;DHT22;7018;50.838;4.226;2022-09-27T08:10:33;9.90;99.90
13896;DHT22;7018;50.838;4.226;2022-09-27T08:13:02;10.00;99.90
13896;DHT22;7018;50.838;4.226;2022-09-27T08:15:33;10.00;99.90
13896;DHT22;7018;50.838;4.226;2022-09-27T08:18:07;10.00;99.90
13896;DHT22;7018;50.838;4.226;2022-09-27T08:20:37;10.00;99.90
13896;DHT22;7018;50.838;4.226;2022-09-27T08:23:06;10.00;99.90
13896;DHT22;7018;50.838;4.226;2022-09-27T08:25:33;10.00;99.90
13896;DHT22;7018;50.838;4.226;2022-09-27T08:28:02;10.10;99.90
13896;DHT22;7018;50.838;4.226;2022-09-27T08:30:31;10.00;99.90
13896;DHT22;7018;50.838;4.226;2022-09-27T08:33:00;10.10;99.90
13896;DHT22;7018;50.838;4.226;2022-09-27T08:35:30;10.00;99.90
13896;DHT22;7018;50.838;4.226;2022-09-27T08:38:00;10.10;99.90
13896;DHT22;7018;50.838;4.226;2022-09-27T08:40:45;10.10;99.90
13896;DHT22;7018;50.838;4.226;2022-09-27T08:43:35;10.10;99.90
13896;DHT22;7018;50.838;4.226;2022-09-27T08:46:14;10.10;99.90
13896;DHT22;7018;50.838;4.226;2022-09-27T08:48:50;10.20;99.90
13896;DHT22;7018;50.838;4.226;2022-09-27T08:51:28;10.20;99.90
13896;DHT22;7018;50.838;4.226;2022-09-27T08:54:33;10.20;99.90
13896;DHT22;7018;50.838;4.226;2022-09-27T08:57:04;10.10;99.90
13896;DHT22;7018;50.838;4.226;2022-09-27T09:00:00;10.10;99.90
13896;DHT22;7018;50.838;4.226;2022-09-27T09:02:28;10.20;99.90
13896;DHT22;7018;50.838;4.226;2022-09-27T09:05:02;10.20;99.90
13896;DHT22;7018;50.838;4.226;2022-09-27T09:07:46;10.10;99.90
13896;DHT22;7018;50.838;4.226;2022-09-27T09:19:07;10.20;99.90
13896;DHT22;7018;50.838;4.226;2022-09-27T09:35:27;11.10;99.90
13896;DHT22;7018;50.838;4.226;2022-09-27T09:38:00;11.10;99.90
13896;DHT22;7018;50.838;4.226;2022-09-27T09:40:40;11.20;99.90
13896;DHT22;7018;50.838;4.226;2022-09-27T09:43:13;11.20;99.90
13896;DHT22;7018;50.838;4.226;2022-09-27T09:45:46;11.20;99.90
13896;DHT22;7018;50.838;4.226;2022-09-27T09:50:54;11.50;99.90
13896;DHT22;7018;50.838;4.226;2022-09-27T09:56:05;11.60;99.90
13896;DHT22;7018;50.838;4.226;2022-09-27T10:01:33;11.80;99.90
13896;DHT22;7018;50.838;4.226;2022-09-27T10:04:02;12.00;99.90
13896;DHT22;7018;50.838;4.226;2022-09-27T10:06:30;12.10;99.90
13896;DHT22;7018;50.838;4.226;2022-09-27T10:08:58;12.20;99.90
13896;DHT22;7018;50.838;4.226;2022-09-27T10:11:39;12.40;99.90
13896;DHT22;7018;50.838;4.226;2022-09-27T10:14:12;12.40;99.90
13896;DHT22;7018;50.838;4.226;2022-09-27T10:16:44;12.50;99.90
13896;DHT22;7018;50.838;4.226;2022-09-27T10:19:21;12.40;99.90
13896;DHT22;7018;50.838;4.226;2022-09-27T10:21:52;12.30;99.90
13896;DHT22;7018;50.838;4.226;2022-09-27T10:24:20;12.40;99.90
13896;DHT22;7018;50.838;4.226;2022-09-27T10:26:48;12.30;99.90
13896;DHT22;7018;50.838;4.226;2022-09-27T10:29:34;12.50;99.90
13896;DHT22;7018;50.838;4.226;2022-09-27T10:32:04;12.50;99.90
13896;DHT22;7018;50.838;4.226;2022-09-27T10:34:43;12.60;99.90
13896;DHT22;7018;50.838;4.226;2022-09-27T10:39:39;12.60;99.90
13896;DHT22;7018;50.838;4.226;2022-09-27T10:42:37;12.50;99.90
13896;DHT22;7018;50.838;4.226;2022-09-27T10:45:30;12.60;99.90
13896;DHT22;7018;50.838;4.226;2022-09-27T10:48:01;12.50;99.90
13896;DHT22;7018;50.838;4.226;2022-09-27T10:50:30;12.50;99.90
13896;DHT22;7018;50.838;4.226;2022-09-27T10:53:18;12.60;99.90
13896;DHT22;7018;50.838;4.226;2022-09-27T10:55:48;12.60;99.90
13896;DHT22;7018;50.838;4.226;2022-09-27T10:58:33;12.70;99.90
13896;DHT22;7018;50.838;4.226;2022-09-27T11:01:05;12.70;99.90
13896;DHT22;7018;50.838;4.226;2022-09-27T11:03:36;12.50;99.90
13896;DHT22;7018;50.838;4.226;2022-09-27T11:06:18;12.40;99.90
13896;DHT22;7018;50.838;4.226;2022-09-27T11:08:46;12.10;99.90
13896;DHT22;7018;50.838;4.226;2022-09-27T11:11:18;12.00;99.90
13896;DHT22;7018;50.838;4.226;2022-09-27T11:14:03;12.10;99.90
13896;DHT22;7018;50.838;4.226;2022-09-27T11:17:17;12.20;99.90
13896;DHT22;7018;50.838;4.226;2022-09-27T11:27:54;12.30;99.90
13896;DHT22;7018;50.838;4.226;2022-09-27T11:30:49;12.40;99.90
13896;DHT22;7018;50.838;4.226;2022-09-27T11:33:34;12.40;99.90
13896;DHT22;7018;50.838;4.226;2022-09-27T11:41:53;12.20;99.90
13896;DHT22;7018;50.838;4.226;2022-09-27T11:58:59;11.30;99.90
13896;DHT22;7018;50.838;4.226;2022-09-27T12:01:53;11.30;99.90
13896;DHT22;7018;50.838;4.226;2022-09-27T12:04:37;11.50;99.90
13896;DHT22;7018;50.838;4.226;2022-09-27T12:10:03;11.80;99.90
13896;DHT22;7018;50.838;4.226;2022-09-27T12:12:32;11.90;99.90
13896;DHT22;7018;50.838;4.226;2022-09-27T12:15:12;12.00;99.90
13896;DHT22;7018;50.838;4.226;2022-09-27T12:17:43;12.00;99.90
13896;DHT22;7018;50.838;4.226;2022-09-27T12:20:27;12.10;99.90
13896;DHT22;7018;50.838;4.226;2022-09-27T12:23:11;12.30;99.90
13896;DHT22;7018;50.838;4.226;2022-09-27T12:25:41;12.50;99.90
13896;DHT22;7018;50.838;4.226;2022-09-27T12:28:32;12.60;99.90
13896;DHT22;7018;50.838;4.226;2022-09-27T12:31:08;12.80;99.90
13896;DHT22;7018;50.838;4.226;2022-09-27T12:36:33;12.90;99.90
13896;DHT22;7018;50.838;4.226;2022-09-27T12:39:27;12.80;99.90
13896;DHT22;7018;50.838;4.226;2022-09-27T12:42:05;12.80;99.90
13896;DHT22;7018;50.838;4.226;2022-09-27T12:44:38;12.80;99.90
13896;DHT22;7018;50.838;4.226;2022-09-27T12:47:24;12.60;99.90
13896;DHT22;7018;50.838;4.226;2022-09-27T12:50:03;12.10;99.90
13896;DHT22;7018;50.838;4.226;2022-09-27T12:52:41;11.60;99.90
13896;DHT22;7018;50.838;4.226;2022-09-27T13:00:53;11.60;99.90
13896;DHT22;7018;50.838;4.226;2022-09-27T13:03:34;11.70;99.90
13896;DHT22;7018;50.838;4.226;2022-09-27T13:08:46;12.20;99.90
13896;DHT22;7018;50.838;4.226;2022-09-27T13:14:24;12.50;99.90
13896;DHT22;7018;50.838;4.226;2022-09-27T13:16:52;12.60;99.90
13896;DHT22;7018;50.838;4.226;2022-09-27T13:24:56;12.60;99.90
13896;DHT22;7018;50.838;4.226;2022-09-27T13:32:39;12.70;99.90
13896;DHT22;7018;50.838;4.226;2022-09-27T13:35:16;12.70;99.90
13896;DHT22;7018;50.838;4.226;2022-09-27T13:37:59;12.80;99.90
13896;DHT22;7018;50.838;4.226;2022-09-27T13:40:31;12.90;99.90
13896;DHT22;7018;50.838;4.226;2022-09-27T13:45:56;13.10;99.90
13896;DHT22;7018;50.838;4.226;2022-09-27T13:51:00;13.30;99.90
13896;DHT22;7018;50.838;4.226;2022-09-27T13:53:37;13.50;99.90
13896;DHT22;7018;50.838;4.226;2022-09-27T13:56:09;13.60;99.90
13896;DHT22;7018;50.838;4.226;2022-09-27T13:59:00;13.70;99.90
13896;DHT22;7018;50.838;4.226;2022-09-27T14:01:32;13.70;99.90
13896;DHT22;7018;50.838;4.226;2022-09-27T14:04:13;13.70;99.90
13896;DHT22;7018;50.838;4.226;2022-09-27T14:06:46;13.70;99.90
13896;DHT22;7018;50.838;4.226;2022-09-27T14:09:28;13.90;99.90
13896;DHT22;7018;50.838;4.226;2022-09-27T14:11:58;13.90;99.90
13896;DHT22;7018;50.838;4.226;2022-09-27T14:14:29;14.10;99.90
13896;DHT22;7018;50.838;4.226;2022-09-27T14:16:58;14.40;99.90
13896;DHT22;7018;50.838;4.226;2022-09-27T14:19:26;14.40;99.90
13896;DHT22;7018;50.838;4.226;2022-09-27T14:21:54;14.40;99.90
13896;DHT22;7018;50.838;4.226;2022-09-27T14:27:05;14.20;99.90
13896;DHT22;7018;50.838;4.226;2022-09-27T14:29:38;14.10;99.90
13896;DHT22;7018;50.838;4.226;2022-09-27T14:32:21;14.00;99.90
13896;DHT22;7018;50.838;4.226;2022-09-27T14:35:21;13.80;99.90
13896;DHT22;7018;50.838;4.226;2022-09-27T14:38:30;13.70;99.90
13896;DHT22;7018;50.838;4.226;2022-09-27T14:41:04;13.50;99.90
13896;DHT22;7018;50.838;4.226;2022-09-27T14:43:34;13.30;99.90
13896;DHT22;7018;50.838;4.226;2022-09-27T14:46:06;13.10;99.90
13896;DHT22;7018;50.838;4.226;2022-09-27T14:48:37;12.80;99.90
13896;DHT22;7018;50.838;4.226;2022-09-27T14:53:51;12.40;99.90
13896;DHT22;7018;50.838;4.226;2022-09-27T14:56:27;12.30;99.90
13896;DHT22;7018;50.838;4.226;2022-09-27T14:59:03;12.20;99.90
13896;DHT22;7018;50.838;4.226;2022-09-27T15:01:34;12.30;99.90
13896;DHT22;7018;50.838;4.226;2022-09-27T15:04:06;12.30;99.90
13896;DHT22;7018;50.838;4.226;2022-09-27T15:06:37;12.30;99.90
13896;DHT22;7018;50.838;4.226;2022-09-27T15:09:05;12.30;99.90
13896;DHT22;7018;50.838;4.226;2022-09-27T15:11:36;12.30;99.90
13896;DHT22;7018;50.838;4.226;2022-09-27T15:14:05;12.40;99.90
13896;DHT22;7018;50.838;4.226;2022-09-27T15:16:33;12.60;99.90
13896;DHT22;7018;50.838;4.226;2022-09-27T15:19:10;13.00;99.90
13896;DHT22;7018;50.838;4.226;2022-09-27T15:21:39;13.40;99.90
13896;DHT22;7018;50.838;4.226;2022-09-27T15:27:03;13.70;99.90
13896;DHT22;7018;50.838;4.226;2022-09-27T15:29:33;13.80;99.90
13896;DHT22;7018;50.838;4.226;2022-09-27T15:32:05;13.70;99.90
13896;DHT22;7018;50.838;4.226;2022-09-27T15:34:33;13.60;99.90
13896;DHT22;7018;50.838;4.226;2022-09-27T15:37:02;13.70;99.90
13896;DHT22;7018;50.838;4.226;2022-09-27T15:39:38;13.80;99.90
13896;DHT22;7018;50.838;4.226;2022-09-27T15:42:13;13.80;99.90
13896;DHT22;7018;50.838;4.226;2022-09-27T15:44:47;13.80;99.90
13896;DHT22;7018;50.838;4.226;2022-09-27T15:52:47;14.00;99.90
13896;DHT22;7018;50.838;4.226;2022-09-27T15:55:19;14.00;99.90
13896;DHT22;7018;50.838;4.226;2022-09-27T15:57:49;14.00;99.90
13896;DHT22;7018;50.838;4.226;2022-09-27T16:00:18;14.00;99.90
13896;DHT22;7018;50.838;4.226;2022-09-27T16:02:46;14.00;99.90
13896;DHT22;7018;50.838;4.226;2022-09-27T16:05:13;14.10;99.90
13896;DHT22;7018;50.838;4.226;2022-09-27T16:07:41;14.20;99.90
13896;DHT22;7018;50.838;4.226;2022-09-27T16:10:13;14.10;99.90
13896;DHT22;7018;50.838;4.226;2022-09-27T16:12:42;14.10;99.90
13896;DHT22;7018;50.838;4.226;2022-09-27T16:15:12;14.00;99.90
13896;DHT22;7018;50.838;4.226;2022-09-27T16:17:40;13.90;99.90
13896;DHT22;7018;50.838;4.226;2022-09-27T16:20:18;13.80;99.90
13896;DHT22;7018;50.838;4.226;2022-09-27T16:22:45;13.70;99.90
13896;DHT22;7018;50.838;4.226;2022-09-27T16:25:12;13.60;99.90
13896;DHT22;7018;50.838;4.226;2022-09-27T16:27:39;13.60;99.90
13896;DHT22;7018;50.838;4.226;2022-09-27T16:30:07;13.60;99.90
13896;DHT22;7018;50.838;4.226;2022-09-27T16:32:43;13.50;99.90
13896;DHT22;7018;50.838;4.226;2022-09-27T16:35:11;13.50;99.90
13896;DHT22;7018;50.838;4.226;2022-09-27T16:37:38;13.60;99.90
13896;DHT22;7018;50.838;4.226;2022-09-27T16:40:07;13.60;99.90
13896;DHT22;7018;50.838;4.226;2022-09-27T16:42:35;13.50;99.90
13896;DHT22;7018;50.838;4.226;2022-09-27T16:45:04;13.50;99.90
13896;DHT22;7018;50.838;4.226;2022-09-27T16:47:35;13.50;99.90
13896;DHT22;7018;50.838;4.226;2022-09-27T16:50:03;13.50;99.90
13896;DHT22;7018;50.838;4.226;2022-09-27T16:52:57;13.50;99.90
13896;DHT22;7018;50.838;4.226;2022-09-27T16:55:26;13.40;99.90
13896;DHT22;7018;50.838;4.226;2022-09-27T16:57:57;13.40;99.90
13896;DHT22;7018;50.838;4.226;2022-09-27T17:00:24;13.30;99.90
13896;DHT22;7018;50.838;4.226;2022-09-27T17:02:52;13.10;99.90
13896;DHT22;7018;50.838;4.226;2022-09-27T17:05:19;13.10;99.90
13896;DHT22;7018;50.838;4.226;2022-09-27T17:07:51;13.10;99.90
13896;DHT22;7018;50.838;4.226;2022-09-27T17:10:20;13.10;99.90
13896;DHT22;7018;50.838;4.226;2022-09-27T17:12:48;13.10;99.90
13896;DHT22;7018;50.838;4.226;2022-09-27T17:15:15;13.10;99.90
13896;DHT22;7018;50.838;4.226;2022-09-27T17:17:43;13.00;99.90
13896;DHT22;7018;50.838;4.226;2022-09-27T17:20:11;13.00;99.90
13896;DHT22;7018;50.838;4.226;2022-09-27T17:22:38;13.00;99.90
13896;DHT22;7018;50.838;4.226;2022-09-27T17:25:05;13.00;99.90
13896;DHT22;7018;50.838;4.226;2022-09-27T17:27:32;12.90;99.90
13896;DHT22;7018;50.838;4.226;2022-09-27T17:29:59;12.70;99.90
13896;DHT22;7018;50.838;4.226;2022-09-27T17:32:27;12.70;99.90
13896;DHT22;7018;50.838;4.226;2022-09-27T17:34:54;12.70;99.90
13896;DHT22;7018;50.838;4.226;2022-09-27T17:37:23;12.40;99.90
13896;DHT22;7018;50.838;4.226;2022-09-27T17:39:51;12.20;99.90
13896;DHT22;7018;50.838;4.226;2022-09-27T17:42:18;12.10;99.90
13896;DHT22;7018;50.838;4.226;2022-09-27T17:44:45;12.00;99.90
13896;DHT22;7018;50.838;4.226;2022-09-27T17:47:12;12.00;99.90
13896;DHT22;7018;50.838;4.226;2022-09-27T17:49:57;11.90;99.90
13896;DHT22;7018;50.838;4.226;2022-09-27T17:52:43;11.80;99.90
13896;DHT22;7018;50.838;4.226;2022-09-27T17:55:10;11.80;99.90
13896;DHT22;7018;50.838;4.226;2022-09-27T17:57:37;11.80;99.90
13896;DHT22;7018;50.838;4.226;2022-09-27T18:00:05;11.70;99.90
13896;DHT22;7018;50.838;4.226;2022-09-27T18:02:33;11.60;99.90
13896;DHT22;7018;50.838;4.226;2022-09-27T18:05:00;11.30;99.90
13896;DHT22;7018;50.838;4.226;2022-09-27T18:07:28;11.30;99.90
13896;DHT22;7018;50.838;4.226;2022-09-27T18:09:55;11.20;99.90
13896;DHT22;7018;50.838;4.226;2022-09-27T18:12:22;11.30;99.90
13896;DHT22;7018;50.838;4.226;2022-09-27T18:14:57;11.20;99.90
13896;DHT22;7018;50.838;4.226;2022-09-27T18:17:25;11.20;99.90
13896;DHT22;7018;50.838;4.226;2022-09-27T18:19:54;11.10;99.90
13896;DHT22;7018;50.838;4.226;2022-09-27T18:22:27;10.90;99.90
13896;DHT22;7018;50.838;4.226;2022-09-27T18:24:56;10.80;99.90
13896;DHT22;7018;50.838;4.226;2022-09-27T18:27:23;10.80;99.90
13896;DHT22;7018;50.838;4.226;2022-09-27T18:29:50;10.80;99.90
13896;DHT22;7018;50.838;4.226;2022-09-27T18:32:18;10.80;99.90
13896;DHT22;7018;50.838;4.226;2022-09-27T18:34:45;10.90;99.90
13896;DHT22;7018;50.838;4.226;2022-09-27T18:37:12;10.90;99.90
13896;DHT22;7018;50.838;4.226;2022-09-27T18:39:39;10.90;99.90
13896;DHT22;7018;50.838;4.226;2022-09-27T18:42:06;11.00;99.90
13896;DHT22;7018;50.838;4.226;2022-09-27T18:44:36;10.90;99.90
13896;DHT22;7018;50.838;4.226;2022-09-27T18:47:03;10.80;99.90